sensor_id;sensor_type;location;lat;lon;timestamp;temperature;humidity
63976;DHT22;50167;47.958;21.780;2023-04-26T00:01:20;12.19;61.87
63976;DHT22;50167;47.958;21.780;2023-04-26T00:03:47;12.52;59.68
63976;DHT22;50167;47.958;21.780;2023-04-26T00:06:13;12.64;58.71
63976;DHT22;50167;47.958;21.780;2023-04-26T00:08:41;11.80;60.67
63976;DHT22;50167;47.958;21.780;2023-04-26T00:11:08;10.93;63.40
63976;DHT22;50167;47.958;21.780;2023-04-26T00:13:34;11.47;63.84
63976;DHT22;50167;47.958;21.780;2023-04-26T00:16:01;12.16;61.06
63976;DHT22;50167;47.958;21.780;2023-04-26T00:18:28;12.61;59.25
63976;DHT22;50167;47.958;21.780;2023-04-26T00:20:54;12.21;59.35
63976;DHT22;50167;47.958;21.780;2023-04-26T00:23:21;11.27;60.58
63976;DHT22;50167;47.958;21.780;2023-04-26T00:25:47;10.80;64.08
63976;DHT22;50167;47.958;21.780;2023-04-26T00:28:13;11.68;62.44
63976;DHT22;50167;47.958;21.780;2023-04-26T00:30:40;12.33;59.99
63976;DHT22;50167;47.958;21.780;2023-04-26T00:33:08;12.61;58.59
63976;DHT22;50167;47.958;21.780;2023-04-26T00:35:34;11.83;60.01
63976;DHT22;50167;47.958;21.780;2023-04-26T00:38:02;10.92;63.01
63976;DHT22;50167;47.958;21.780;2023-04-26T00:40:29;11.32;64.17
63976;DHT22;50167;47.958;21.780;2023-04-26T00:42:57;12.17;60.80
63976;DHT22;50167;47.958;21.780;2023-04-26T00:45:24;12.71;58.90
63976;DHT22;50167;47.958;21.780;2023-04-26T00:47:50;12.17;58.74
63976;DHT22;50167;47.958;21.780;2023-04-26T00:50:17;11.21;61.49
63976;DHT22;50167;47.958;21.780;2023-04-26T00:52:45;10.41;64.35
63976;DHT22;50167;47.958;21.780;2023-04-26T00:55:12;11.08;64.34
63976;DHT22;50167;47.958;21.780;2023-04-26T00:57:39;12.01;62.28
63976;DHT22;50167;47.958;21.780;2023-04-26T01:00:07;12.54;59.92
63976;DHT22;50167;47.958;21.780;2023-04-26T01:02:34;12.40;58.62
63976;DHT22;50167;47.958;21.780;2023-04-26T01:05:00;11.42;60.30
63976;DHT22;50167;47.958;21.780;2023-04-26T01:07:26;10.56;63.41
63976;DHT22;50167;47.958;21.780;2023-04-26T01:09:53;10.90;63.83
63976;DHT22;50167;47.958;21.780;2023-04-26T01:12:22;11.86;63.12
63976;DHT22;50167;47.958;21.780;2023-04-26T01:14:49;12.48;59.71
63976;DHT22;50167;47.958;21.780;2023-04-26T01:17:16;12.41;58.60
63976;DHT22;50167;47.958;21.780;2023-04-26T01:19:47;11.48;59.55
63976;DHT22;50167;47.958;21.780;2023-04-26T01:22:13;10.59;55.97
63976;DHT22;50167;47.958;21.780;2023-04-26T01:24:42;10.03;63.75
63976;DHT22;50167;47.958;21.780;2023-04-26T01:27:08;10.42;65.22
63976;DHT22;50167;47.958;21.780;2023-04-26T01:29:35;11.42;63.33
63976;DHT22;50167;47.958;21.780;2023-04-26T01:32:01;12.13;63.30
63976;DHT22;50167;47.958;21.780;2023-04-26T01:34:27;12.54;61.66
63976;DHT22;50167;47.958;21.780;2023-04-26T01:36:53;12.92;61.13
63976;DHT22;50167;47.958;21.780;2023-04-26T01:39:21;13.33;59.57
63976;DHT22;50167;47.958;21.780;2023-04-26T01:41:47;12.99;57.06
63976;DHT22;50167;47.958;21.780;2023-04-26T01:44:13;12.01;57.85
63976;DHT22;50167;47.958;21.780;2023-04-26T01:46:39;11.17;59.65
63976;DHT22;50167;47.958;21.780;2023-04-26T01:49:06;10.49;62.09
63976;DHT22;50167;47.958;21.780;2023-04-26T01:51:32;10.97;65.60
63976;DHT22;50167;47.958;21.780;2023-04-26T01:53:59;12.34;64.43
63976;DHT22;50167;47.958;21.780;2023-04-26T01:56:26;13.22;61.43
63976;DHT22;50167;47.958;21.780;2023-04-26T01:58:52;13.71;59.06
63976;DHT22;50167;47.958;21.780;2023-04-26T02:01:20;13.35;56.14
63976;DHT22;50167;47.958;21.780;2023-04-26T02:03:46;12.34;57.06
63976;DHT22;50167;47.958;21.780;2023-04-26T02:06:14;11.47;58.75
63976;DHT22;50167;47.958;21.780;2023-04-26T02:08:40;10.83;60.67
63976;DHT22;50167;47.958;21.780;2023-04-26T02:11:06;10.34;62.51
63976;DHT22;50167;47.958;21.780;2023-04-26T02:13:33;10.94;67.01
63976;DHT22;50167;47.958;21.780;2023-04-26T02:15:59;12.31;65.28
63976;DHT22;50167;47.958;21.780;2023-04-26T02:18:25;13.19;62.06
63976;DHT22;50167;47.958;21.780;2023-04-26T02:20:51;13.71;59.62
63976;DHT22;50167;47.958;21.780;2023-04-26T02:23:17;13.43;56.69
63976;DHT22;50167;47.958;21.780;2023-04-26T02:25:48;12.40;57.64
63976;DHT22;50167;47.958;21.780;2023-04-26T02:28:15;11.51;58.97
63976;DHT22;50167;47.958;21.780;2023-04-26T02:30:41;10.79;61.22
63976;DHT22;50167;47.958;21.780;2023-04-26T02:33:08;10.24;62.45
63976;DHT22;50167;47.958;21.780;2023-04-26T02:35:35;10.79;67.36
63976;DHT22;50167;47.958;21.780;2023-04-26T02:38:04;12.15;65.51
63976;DHT22;50167;47.958;21.780;2023-04-26T02:40:30;12.64;62.24
63976;DHT22;50167;47.958;21.780;2023-04-26T02:42:57;12.93;60.91
63976;DHT22;50167;47.958;21.780;2023-04-26T02:45:23;13.17;59.87
63976;DHT22;50167;47.958;21.780;2023-04-26T02:47:49;13.43;58.79
63976;DHT22;50167;47.958;21.780;2023-04-26T02:50:15;12.95;56.78
63976;DHT22;50167;47.958;21.780;2023-04-26T02:52:41;11.92;58.29
63976;DHT22;50167;47.958;21.780;2023-04-26T02:55:08;11.04;60.37
63976;DHT22;50167;47.958;21.780;2023-04-26T02:57:35;10.41;62.10
63976;DHT22;50167;47.958;21.780;2023-04-26T03:00:01;10.68;66.50
63976;DHT22;50167;47.958;21.780;2023-04-26T03:02:29;11.79;66.04
63976;DHT22;50167;47.958;21.780;2023-04-26T03:04:56;12.51;63.43
63976;DHT22;50167;47.958;21.780;2023-04-26T03:07:22;12.95;61.82
63976;DHT22;50167;47.958;21.780;2023-04-26T03:09:48;13.31;60.38
63976;DHT22;50167;47.958;21.780;2023-04-26T03:12:14;13.55;59.31
63976;DHT22;50167;47.958;21.780;2023-04-26T03:14:40;13.24;57.21
63976;DHT22;50167;47.958;21.780;2023-04-26T03:17:06;12.28;58.45
63976;DHT22;50167;47.958;21.780;2023-04-26T03:19:33;11.54;60.11
63976;DHT22;50167;47.958;21.780;2023-04-26T03:21:59;10.93;61.14
63976;DHT22;50167;47.958;21.780;2023-04-26T03:24:26;10.48;62.46
63976;DHT22;50167;47.958;21.780;2023-04-26T03:26:52;10.83;66.63
63976;DHT22;50167;47.958;21.780;2023-04-26T03:29:18;11.79;65.78
63976;DHT22;50167;47.958;21.780;2023-04-26T03:31:44;12.41;63.50
63976;DHT22;50167;47.958;21.780;2023-04-26T03:34:10;12.91;61.80
63976;DHT22;50167;47.958;21.780;2023-04-26T03:36:36;13.13;60.17
63976;DHT22;50167;47.958;21.780;2023-04-26T03:39:04;13.29;59.60
63976;DHT22;50167;47.958;21.780;2023-04-26T03:41:31;13.00;57.89
63976;DHT22;50167;47.958;21.780;2023-04-26T03:43:58;12.07;58.66
63976;DHT22;50167;47.958;21.780;2023-04-26T03:46:24;11.22;60.23
63976;DHT22;50167;47.958;21.780;2023-04-26T03:48:50;10.56;61.94
63976;DHT22;50167;47.958;21.780;2023-04-26T03:51:16;10.84;66.44
63976;DHT22;50167;47.958;21.780;2023-04-26T03:53:42;11.93;65.84
63976;DHT22;50167;47.958;21.780;2023-04-26T03:56:10;12.61;63.42
63976;DHT22;50167;47.958;21.780;2023-04-26T03:58:37;13.12;61.12
63976;DHT22;50167;47.958;21.780;2023-04-26T04:01:03;13.50;60.06
63976;DHT22;50167;47.958;21.780;2023-04-26T04:03:30;13.84;58.69
63976;DHT22;50167;47.958;21.780;2023-04-26T04:05:56;13.34;56.32
63976;DHT22;50167;47.958;21.780;2023-04-26T04:08:22;12.37;57.46
63976;DHT22;50167;47.958;21.780;2023-04-26T04:10:49;11.51;59.05
63976;DHT22;50167;47.958;21.780;2023-04-26T04:13:15;10.84;61.20
63976;DHT22;50167;47.958;21.780;2023-04-26T04:15:41;10.59;64.54
63976;DHT22;50167;47.958;21.780;2023-04-26T04:18:07;11.72;64.83
63976;DHT22;50167;47.958;21.780;2023-04-26T04:20:34;12.55;62.71
63976;DHT22;50167;47.958;21.780;2023-04-26T04:23:00;12.99;60.10
63976;DHT22;50167;47.958;21.780;2023-04-26T04:25:28;13.27;58.93
63976;DHT22;50167;47.958;21.780;2023-04-26T04:27:54;12.78;57.48
63976;DHT22;50167;47.958;21.780;2023-04-26T04:30:20;11.78;57.66
63976;DHT22;50167;47.958;21.780;2023-04-26T04:32:47;10.93;62.11
63976;DHT22;50167;47.958;21.780;2023-04-26T04:35:13;10.32;63.05
63976;DHT22;50167;47.958;21.780;2023-04-26T04:37:39;10.66;65.40
63976;DHT22;50167;47.958;21.780;2023-04-26T04:40:08;11.82;62.25
63976;DHT22;50167;47.958;21.780;2023-04-26T04:42:37;12.76;61.28
63976;DHT22;50167;47.958;21.780;2023-04-26T04:45:05;13.35;59.94
63976;DHT22;50167;47.958;21.780;2023-04-26T04:47:32;13.13;56.69
63976;DHT22;50167;47.958;21.780;2023-04-26T04:49:59;12.15;57.68
63976;DHT22;50167;47.958;21.780;2023-04-26T04:52:25;11.37;58.85
63976;DHT22;50167;47.958;21.780;2023-04-26T04:54:51;10.86;60.96
63976;DHT22;50167;47.958;21.780;2023-04-26T04:57:17;10.42;62.40
63976;DHT22;50167;47.958;21.780;2023-04-26T04:59:43;11.04;65.45
63976;DHT22;50167;47.958;21.780;2023-04-26T05:02:10;12.38;63.94
63976;DHT22;50167;47.958;21.780;2023-04-26T05:04:36;13.24;61.74
63976;DHT22;50167;47.958;21.780;2023-04-26T05:07:02;13.85;59.82
63976;DHT22;50167;47.958;21.780;2023-04-26T05:09:28;13.66;56.73
63976;DHT22;50167;47.958;21.780;2023-04-26T05:11:54;12.71;58.07
63976;DHT22;50167;47.958;21.780;2023-04-26T05:14:20;11.90;61.08
63976;DHT22;50167;47.958;21.780;2023-04-26T05:16:46;11.28;62.79
63976;DHT22;50167;47.958;21.780;2023-04-26T05:19:13;11.83;63.88
63976;DHT22;50167;47.958;21.780;2023-04-26T05:21:39;13.26;62.48
63976;DHT22;50167;47.958;21.780;2023-04-26T05:24:06;14.19;59.30
63976;DHT22;50167;47.958;21.780;2023-04-26T05:26:34;13.99;56.85
63976;DHT22;50167;47.958;21.780;2023-04-26T05:29:00;13.06;57.67
63976;DHT22;50167;47.958;21.780;2023-04-26T05:31:27;12.34;60.78
63976;DHT22;50167;47.958;21.780;2023-04-26T05:33:53;11.92;62.60
63976;DHT22;50167;47.958;21.780;2023-04-26T05:36:19;12.89;60.98
63976;DHT22;50167;47.958;21.780;2023-04-26T05:38:46;13.88;58.44
63976;DHT22;50167;47.958;21.780;2023-04-26T05:41:13;13.71;57.79
63976;DHT22;50167;47.958;21.780;2023-04-26T05:43:40;12.96;59.91
63976;DHT22;50167;47.958;21.780;2023-04-26T05:46:06;12.27;62.05
63976;DHT22;50167;47.958;21.780;2023-04-26T05:48:32;12.13;63.21
63976;DHT22;50167;47.958;21.780;2023-04-26T05:50:59;13.33;60.93
63976;DHT22;50167;47.958;21.780;2023-04-26T05:57:14;13.09;60.34
63976;DHT22;50167;47.958;21.780;2023-04-26T05:59:41;12.61;61.75
63976;DHT22;50167;47.958;21.780;2023-04-26T06:02:06;12.27;63.01
63976;DHT22;50167;47.958;21.780;2023-04-26T06:04:33;12.92;58.93
63976;DHT22;50167;47.958;21.780;2023-04-26T06:07:00;13.00;59.38
63976;DHT22;50167;47.958;21.780;2023-04-26T06:09:26;12.59;60.95
63976;DHT22;50167;47.958;21.780;2023-04-26T06:11:52;12.27;62.20
63976;DHT22;50167;47.958;21.780;2023-04-26T06:14:18;12.19;62.83
63976;DHT22;50167;47.958;21.780;2023-04-26T06:16:44;13.34;58.83
63976;DHT22;50167;47.958;21.780;2023-04-26T06:19:10;13.65;57.44
63976;DHT22;50167;47.958;21.780;2023-04-26T06:21:37;13.19;58.28
63976;DHT22;50167;47.958;21.780;2023-04-26T06:24:03;12.74;59.60
63976;DHT22;50167;47.958;21.780;2023-04-26T06:26:29;12.47;60.80
63976;DHT22;50167;47.958;21.780;2023-04-26T06:28:56;12.30;60.17
63976;DHT22;50167;47.958;21.780;2023-04-26T06:31:23;12.10;59.94
63976;DHT22;50167;47.958;21.780;2023-04-26T06:33:49;11.96;60.77
63976;DHT22;50167;47.958;21.780;2023-04-26T06:36:15;11.88;61.51
63976;DHT22;50167;47.958;21.780;2023-04-26T06:38:41;11.82;61.66
63976;DHT22;50167;47.958;21.780;2023-04-26T06:41:08;11.76;60.69
63976;DHT22;50167;47.958;21.780;2023-04-26T06:43:34;11.70;62.10
63976;DHT22;50167;47.958;21.780;2023-04-26T06:46:00;11.76;61.14
63976;DHT22;50167;47.958;21.780;2023-04-26T06:48:26;11.73;61.41
63976;DHT22;50167;47.958;21.780;2023-04-26T06:50:52;11.73;61.43
63976;DHT22;50167;47.958;21.780;2023-04-26T06:53:19;11.80;59.60
63976;DHT22;50167;47.958;21.780;2023-04-26T06:55:45;11.75;59.19
63976;DHT22;50167;47.958;21.780;2023-04-26T06:58:11;11.72;57.19
63976;DHT22;50167;47.958;21.780;2023-04-26T07:00:38;11.70;58.09
63976;DHT22;50167;47.958;21.780;2023-04-26T07:03:04;11.79;58.35
63976;DHT22;50167;47.958;21.780;2023-04-26T07:05:30;11.92;58.16
63976;DHT22;50167;47.958;21.780;2023-04-26T07:07:56;12.04;58.19
63976;DHT22;50167;47.958;21.780;2023-04-26T07:10:22;12.24;57.52
63976;DHT22;50167;47.958;21.780;2023-04-26T07:12:49;12.30;57.58
63976;DHT22;50167;47.958;21.780;2023-04-26T07:15:15;12.41;57.77
63976;DHT22;50167;47.958;21.780;2023-04-26T07:17:41;12.51;57.71
63976;DHT22;50167;47.958;21.780;2023-04-26T07:20:08;12.64;57.54
63976;DHT22;50167;47.958;21.780;2023-04-26T07:22:35;12.64;55.24
63976;DHT22;50167;47.958;21.780;2023-04-26T07:25:01;12.61;55.79
63976;DHT22;50167;47.958;21.780;2023-04-26T07:27:29;12.66;55.30
63976;DHT22;50167;47.958;21.780;2023-04-26T07:29:56;12.71;54.81
63976;DHT22;50167;47.958;21.780;2023-04-26T07:32:22;12.75;54.47
63976;DHT22;50167;47.958;21.780;2023-04-26T07:34:48;12.76;53.70
63976;DHT22;50167;47.958;21.780;2023-04-26T07:37:14;12.80;54.95
63976;DHT22;50167;47.958;21.780;2023-04-26T07:39:41;12.96;53.01
63976;DHT22;50167;47.958;21.780;2023-04-26T07:42:09;12.98;52.40
63976;DHT22;50167;47.958;21.780;2023-04-26T07:44:41;12.93;51.86
63976;DHT22;50167;47.958;21.780;2023-04-26T07:47:13;12.91;51.83
63976;DHT22;50167;47.958;21.780;2023-04-26T07:49:40;12.87;49.98
63976;DHT22;50167;47.958;21.780;2023-04-26T07:52:08;12.78;49.67
63976;DHT22;50167;47.958;21.780;2023-04-26T07:54:34;12.65;50.65
63976;DHT22;50167;47.958;21.780;2023-04-26T07:57:00;12.62;48.44
63976;DHT22;50167;47.958;21.780;2023-04-26T07:59:27;12.51;50.13
63976;DHT22;50167;47.958;21.780;2023-04-26T08:01:53;12.54;48.96
63976;DHT22;50167;47.958;21.780;2023-04-26T08:04:29;12.61;49.02
63976;DHT22;50167;47.958;21.780;2023-04-26T08:06:51;12.68;48.78
63976;DHT22;50167;47.958;21.780;2023-04-26T08:09:17;12.69;49.21
63976;DHT22;50167;47.958;21.780;2023-04-26T08:11:43;12.75;50.04
63976;DHT22;50167;47.958;21.780;2023-04-26T08:14:09;12.89;48.68
63976;DHT22;50167;47.958;21.780;2023-04-26T08:16:36;12.92;47.71
63976;DHT22;50167;47.958;21.780;2023-04-26T08:19:02;12.95;48.29
63976;DHT22;50167;47.958;21.780;2023-04-26T08:21:28;12.96;47.20
63976;DHT22;50167;47.958;21.780;2023-04-26T08:23:55;12.92;48.52
63976;DHT22;50167;47.958;21.780;2023-04-26T08:26:22;12.99;49.22
63976;DHT22;50167;47.958;21.780;2023-04-26T08:28:48;13.07;48.47
63976;DHT22;50167;47.958;21.780;2023-04-26T08:31:15;13.13;48.16
63976;DHT22;50167;47.958;21.780;2023-04-26T08:33:41;13.16;46.66
63976;DHT22;50167;47.958;21.780;2023-04-26T08:36:07;13.19;46.44
63976;DHT22;50167;47.958;21.780;2023-04-26T08:38:34;13.10;46.95
63976;DHT22;50167;47.958;21.780;2023-04-26T08:41:01;13.12;46.19
63976;DHT22;50167;47.958;21.780;2023-04-26T08:43:29;13.12;47.31
63976;DHT22;50167;47.958;21.780;2023-04-26T08:45:58;13.19;46.09
63976;DHT22;50167;47.958;21.780;2023-04-26T08:48:27;13.17;46.51
63976;DHT22;50167;47.958;21.780;2023-04-26T08:50:55;13.29;47.44
63976;DHT22;50167;47.958;21.780;2023-04-26T08:53:21;13.38;46.04
63976;DHT22;50167;47.958;21.780;2023-04-26T08:55:48;13.50;44.29
63976;DHT22;50167;47.958;21.780;2023-04-26T08:58:17;13.47;47.05
63976;DHT22;50167;47.958;21.780;2023-04-26T09:00:44;13.62;47.24
63976;DHT22;50167;47.958;21.780;2023-04-26T09:03:11;13.84;47.14
63976;DHT22;50167;47.958;21.780;2023-04-26T09:05:39;13.91;44.00
63976;DHT22;50167;47.958;21.780;2023-04-26T09:08:08;13.81;45.22
63976;DHT22;50167;47.958;21.780;2023-04-26T09:10:34;13.81;45.96
63976;DHT22;50167;47.958;21.780;2023-04-26T09:13:00;13.84;44.79
63976;DHT22;50167;47.958;21.780;2023-04-26T09:15:26;13.91;45.63
63976;DHT22;50167;47.958;21.780;2023-04-26T09:17:53;13.96;45.65
63976;DHT22;50167;47.958;21.780;2023-04-26T09:20:25;13.99;45.09
63976;DHT22;50167;47.958;21.780;2023-04-26T09:23:07;14.03;45.78
63976;DHT22;50167;47.958;21.780;2023-04-26T09:25:33;14.13;46.19
63976;DHT22;50167;47.958;21.780;2023-04-26T09:28:01;14.31;44.63
63976;DHT22;50167;47.958;21.780;2023-04-26T09:30:29;14.37;43.64
63976;DHT22;50167;47.958;21.780;2023-04-26T09:32:59;14.34;42.71
63976;DHT22;50167;47.958;21.780;2023-04-26T09:35:40;14.26;42.91
63976;DHT22;50167;47.958;21.780;2023-04-26T09:38:10;14.20;43.51
63976;DHT22;50167;47.958;21.780;2023-04-26T09:40:45;14.23;44.62
63976;DHT22;50167;47.958;21.780;2023-04-26T09:43:21;14.47;43.94
63976;DHT22;50167;47.958;21.780;2023-04-26T09:45:56;14.57;40.95
63976;DHT22;50167;47.958;21.780;2023-04-26T09:48:28;14.38;41.50
63976;DHT22;50167;47.958;21.780;2023-04-26T09:50:57;14.33;42.83
63976;DHT22;50167;47.958;21.780;2023-04-26T09:53:37;14.45;44.91
63976;DHT22;50167;47.958;21.780;2023-04-26T09:58:56;14.70;42.20
63976;DHT22;50167;47.958;21.780;2023-04-26T10:01:26;14.82;41.59
63976;DHT22;50167;47.958;21.780;2023-04-26T10:03:56;14.89;43.04
63976;DHT22;50167;47.958;21.780;2023-04-26T10:06:23;15.00;42.42
63976;DHT22;50167;47.958;21.780;2023-04-26T10:08:49;15.06;42.40
63976;DHT22;50167;47.958;21.780;2023-04-26T10:11:17;15.10;42.23
63976;DHT22;50167;47.958;21.780;2023-04-26T10:13:43;15.20;42.02
63976;DHT22;50167;47.958;21.780;2023-04-26T10:16:09;15.22;42.53
63976;DHT22;50167;47.958;21.780;2023-04-26T10:18:36;15.22;41.95
63976;DHT22;50167;47.958;21.780;2023-04-26T10:21:26;15.12;42.60
63976;DHT22;50167;47.958;21.780;2023-04-26T10:23:50;15.09;41.12
63976;DHT22;50167;47.958;21.780;2023-04-26T10:26:54;15.16;41.41
63976;DHT22;50167;47.958;21.780;2023-04-26T10:29:23;15.19;40.90
63976;DHT22;50167;47.958;21.780;2023-04-26T10:32:05;15.10;40.03
63976;DHT22;50167;47.958;21.780;2023-04-26T10:34:32;15.10;40.02
63976;DHT22;50167;47.958;21.780;2023-04-26T10:39:40;15.30;41.77
63976;DHT22;50167;47.958;21.780;2023-04-26T10:42:25;15.47;41.70
63976;DHT22;50167;47.958;21.780;2023-04-26T10:44:58;15.46;41.81
63976;DHT22;50167;47.958;21.780;2023-04-26T10:47:35;15.33;40.90
63976;DHT22;50167;47.958;21.780;2023-04-26T10:50:08;15.30;41.48
63976;DHT22;50167;47.958;21.780;2023-04-26T10:52:36;15.33;40.67
63976;DHT22;50167;47.958;21.780;2023-04-26T10:55:03;15.34;42.01
63976;DHT22;50167;47.958;21.780;2023-04-26T10:57:49;15.33;41.72
63976;DHT22;50167;47.958;21.780;2023-04-26T11:00:19;15.42;41.98
63976;DHT22;50167;47.958;21.780;2023-04-26T11:03:01;15.46;40.85
63976;DHT22;50167;47.958;21.780;2023-04-26T11:05:40;15.29;38.33
63976;DHT22;50167;47.958;21.780;2023-04-26T11:08:28;15.19;37.87
63976;DHT22;50167;47.958;21.780;2023-04-26T11:13:42;15.36;39.11
63976;DHT22;50167;47.958;21.780;2023-04-26T11:16:10;15.44;38.88
63976;DHT22;50167;47.958;21.780;2023-04-26T11:18:41;15.58;40.45
63976;DHT22;50167;47.958;21.780;2023-04-26T11:21:08;15.85;41.42
63976;DHT22;50167;47.958;21.780;2023-04-26T11:23:35;15.86;40.25
63976;DHT22;50167;47.958;21.780;2023-04-26T11:26:07;15.89;41.79
63976;DHT22;50167;47.958;21.780;2023-04-26T11:28:37;16.12;40.99
63976;DHT22;50167;47.958;21.780;2023-04-26T11:31:05;16.23;40.14
63976;DHT22;50167;47.958;21.780;2023-04-26T11:33:32;16.28;39.98
63976;DHT22;50167;47.958;21.780;2023-04-26T11:36:02;16.23;39.81
63976;DHT22;50167;47.958;21.780;2023-04-26T11:38:29;16.23;39.49
63976;DHT22;50167;47.958;21.780;2023-04-26T11:41:00;16.35;39.10
63976;DHT22;50167;47.958;21.780;2023-04-26T11:43:35;16.30;37.11
63976;DHT22;50167;47.958;21.780;2023-04-26T11:46:06;16.15;37.90
63976;DHT22;50167;47.958;21.780;2023-04-26T11:48:37;16.04;37.26
63976;DHT22;50167;47.958;21.780;2023-04-26T11:51:05;15.92;37.93
63976;DHT22;50167;47.958;21.780;2023-04-26T11:53:40;15.91;37.79
63976;DHT22;50167;47.958;21.780;2023-04-26T11:56:15;15.92;39.81
63976;DHT22;50167;47.958;21.780;2023-04-26T11:58:50;16.18;40.52
63976;DHT22;50167;47.958;21.780;2023-04-26T12:01:25;16.36;39.10
63976;DHT22;50167;47.958;21.780;2023-04-26T12:03:57;16.50;38.40
63976;DHT22;50167;47.958;21.780;2023-04-26T12:06:43;16.56;36.84
63976;DHT22;50167;47.958;21.780;2023-04-26T12:13:12;17.15;39.34
63976;DHT22;50167;47.958;21.780;2023-04-26T12:15:56;17.29;39.07
63976;DHT22;50167;47.958;21.780;2023-04-26T12:18:31;17.15;37.24
63976;DHT22;50167;47.958;21.780;2023-04-26T12:20:59;16.99;38.10
63976;DHT22;50167;47.958;21.780;2023-04-26T12:23:25;17.05;37.07
63976;DHT22;50167;47.958;21.780;2023-04-26T12:25:56;17.19;36.10
63976;DHT22;50167;47.958;21.780;2023-04-26T12:28:24;17.01;36.68
63976;DHT22;50167;47.958;21.780;2023-04-26T12:30:50;16.68;37.39
63976;DHT22;50167;47.958;21.780;2023-04-26T12:33:17;16.60;36.69
63976;DHT22;50167;47.958;21.780;2023-04-26T12:35:45;17.05;35.90
63976;DHT22;50167;47.958;21.780;2023-04-26T12:38:12;17.80;35.31
63976;DHT22;50167;47.958;21.780;2023-04-26T12:40:39;18.60;34.24
63976;DHT22;50167;47.958;21.780;2023-04-26T12:43:05;19.38;33.93
63976;DHT22;50167;47.958;21.780;2023-04-26T12:45:32;19.56;33.07
63976;DHT22;50167;47.958;21.780;2023-04-26T12:47:58;19.22;33.93
63976;DHT22;50167;47.958;21.780;2023-04-26T12:50:24;18.60;32.63
63976;DHT22;50167;47.958;21.780;2023-04-26T12:52:51;18.21;34.49
63976;DHT22;50167;47.958;21.780;2023-04-26T12:55:18;18.53;35.85
63976;DHT22;50167;47.958;21.780;2023-04-26T12:57:47;19.35;33.55
63976;DHT22;50167;47.958;21.780;2023-04-26T13:00:15;19.38;31.96
63976;DHT22;50167;47.958;21.780;2023-04-26T13:02:44;18.76;32.20
63976;DHT22;50167;47.958;21.780;2023-04-26T13:05:12;18.48;33.57
63976;DHT22;50167;47.958;21.780;2023-04-26T13:07:42;18.37;34.12
63976;DHT22;50167;47.958;21.780;2023-04-26T13:10:09;18.12;33.89
63976;DHT22;50167;47.958;21.780;2023-04-26T13:12:36;18.25;34.75
63976;DHT22;50167;47.958;21.780;2023-04-26T13:15:06;18.33;35.30
63976;DHT22;50167;47.958;21.780;2023-04-26T13:17:39;18.98;33.67
63976;DHT22;50167;47.958;21.780;2023-04-26T13:20:04;19.49;32.96
63976;DHT22;50167;47.958;21.780;2023-04-26T13:22:32;19.77;31.55
63976;DHT22;50167;47.958;21.780;2023-04-26T13:24:58;19.32;31.04
63976;DHT22;50167;47.958;21.780;2023-04-26T13:27:24;19.29;32.65
63976;DHT22;50167;47.958;21.780;2023-04-26T13:29:51;19.59;33.03
63976;DHT22;50167;47.958;21.780;2023-04-26T13:32:17;20.11;32.18
63976;DHT22;50167;47.958;21.780;2023-04-26T13:34:43;20.75;30.80
63976;DHT22;50167;47.958;21.780;2023-04-26T13:37:12;20.86;29.61
63976;DHT22;50167;47.958;21.780;2023-04-26T13:39:39;20.78;30.05
63976;DHT22;50167;47.958;21.780;2023-04-26T13:42:05;21.27;30.32
63976;DHT22;50167;47.958;21.780;2023-04-26T13:44:32;22.13;27.25
63976;DHT22;50167;47.958;21.780;2023-04-26T13:46:58;22.68;28.54
63976;DHT22;50167;47.958;21.780;2023-04-26T13:49:25;23.43;26.25
63976;DHT22;50167;47.958;21.780;2023-04-26T13:51:52;23.71;25.63
63976;DHT22;50167;47.958;21.780;2023-04-26T13:54:19;23.65;25.70
63976;DHT22;50167;47.958;21.780;2023-04-26T13:56:47;22.99;25.65
63976;DHT22;50167;47.958;21.780;2023-04-26T13:59:14;22.14;26.74
63976;DHT22;50167;47.958;21.780;2023-04-26T14:01:40;21.78;27.24
63976;DHT22;50167;47.958;21.780;2023-04-26T14:04:06;21.73;27.53
63976;DHT22;50167;47.958;21.780;2023-04-26T14:06:33;21.82;27.57
63976;DHT22;50167;47.958;21.780;2023-04-26T14:09:00;21.99;27.37
63976;DHT22;50167;47.958;21.780;2023-04-26T14:11:26;21.31;26.67
63976;DHT22;50167;47.958;21.780;2023-04-26T14:13:53;20.18;28.12
63976;DHT22;50167;47.958;21.780;2023-04-26T14:16:23;19.73;30.53
63976;DHT22;50167;47.958;21.780;2023-04-26T14:18:50;20.34;29.58
63976;DHT22;50167;47.958;21.780;2023-04-26T14:21:17;20.64;27.93
63976;DHT22;50167;47.958;21.780;2023-04-26T14:23:43;20.13;28.69
63976;DHT22;50167;47.958;21.780;2023-04-26T14:26:10;20.10;30.95
63976;DHT22;50167;47.958;21.780;2023-04-26T14:28:36;20.94;30.22
63976;DHT22;50167;47.958;21.780;2023-04-26T14:31:02;21.96;29.19
63976;DHT22;50167;47.958;21.780;2023-04-26T14:33:28;22.86;28.12
63976;DHT22;50167;47.958;21.780;2023-04-26T14:35:55;23.36;25.82
63976;DHT22;50167;47.958;21.780;2023-04-26T14:38:21;23.12;25.66
63976;DHT22;50167;47.958;21.780;2023-04-26T14:40:47;22.86;25.94
63976;DHT22;50167;47.958;21.780;2023-04-26T14:43:14;23.09;26.65
63976;DHT22;50167;47.958;21.780;2023-04-26T14:45:43;23.15;25.77
63976;DHT22;50167;47.958;21.780;2023-04-26T14:48:09;22.43;26.20
63976;DHT22;50167;47.958;21.780;2023-04-26T14:50:37;21.34;26.95
63976;DHT22;50167;47.958;21.780;2023-04-26T14:53:03;20.24;28.08
63976;DHT22;50167;47.958;21.780;2023-04-26T14:55:29;19.18;29.26
63976;DHT22;50167;47.958;21.780;2023-04-26T14:57:56;18.25;29.99
63976;DHT22;50167;47.958;21.780;2023-04-26T15:00:22;17.52;31.76
63976;DHT22;50167;47.958;21.780;2023-04-26T15:02:50;16.99;32.77
63976;DHT22;50167;47.958;21.780;2023-04-26T15:05:18;16.50;33.73
63976;DHT22;50167;47.958;21.780;2023-04-26T15:07:46;16.11;34.28
63976;DHT22;50167;47.958;21.780;2023-04-26T15:10:12;15.85;34.60
63976;DHT22;50167;47.958;21.780;2023-04-26T15:12:39;15.60;35.11
63976;DHT22;50167;47.958;21.780;2023-04-26T15:15:06;15.27;35.66
63976;DHT22;50167;47.958;21.780;2023-04-26T15:17:33;15.00;36.56
63976;DHT22;50167;47.958;21.780;2023-04-26T15:20:01;14.70;37.25
63976;DHT22;50167;47.958;21.780;2023-04-26T15:22:27;14.50;37.60
63976;DHT22;50167;47.958;21.780;2023-04-26T15:24:53;14.37;38.76
63976;DHT22;50167;47.958;21.780;2023-04-26T15:27:19;14.36;38.53
63976;DHT22;50167;47.958;21.780;2023-04-26T15:29:46;14.31;39.08
63976;DHT22;50167;47.958;21.780;2023-04-26T15:32:12;14.33;38.55
63976;DHT22;50167;47.958;21.780;2023-04-26T15:34:40;14.31;38.41